»·PEaware :: N2612J KNYL-KONT

N2612J :: KNYL-KONT

FLIGHT INFORMATION

Flight Status: Arrived
Operator: Privately registered:
United States
More flights under this callsign
Pilot: Andrew F. (4171)
Aircraft: DEHAVILLAND DH-6 TWIN OTTER
(DHC6)
More flights by this aircraft type
Origin: KNYL Yuma MCAS/Yuma Intl
United States
Destination: KONT Ontario Intl
United States
More flights between these airports :: More routes between these airports
Route: +BZA V458 JLI SETER3 26L
File this flight plan on PilotEdge
Remarks:
Altitude:
(Current/Filed)
12,000ft
Speed:
(Current/Filed)
140kts
Departed: 04-Oct-15 12:53 PM
Arrived: 04-Oct-15 02:13 PM
Distance/Time
Traveled:
172nm/1:20
Distance/Time
To Go:
Arrived

Flight Plot

Page will automatically refresh every two minutes.


Map Options




Map Legend


Flown Route
Filed Route
Departure Airport
Arrival Airport
Navaid (VOR, NDB)
Fix

Horizontal Profiles

Position Reports

Time Latitude Longitude Heading Altitude Ground
Speed
04-Oct-15 12:40 32.813444 -117.140192 21 436ft 0kts
04-Oct-15 12:41 32.813444 -117.140192 21 436ft 0kts
04-Oct-15 12:46 32.667968 -114.601468 270 225ft 0kts
04-Oct-15 12:47 32.667968 -114.601468 270 225ft 0kts
04-Oct-15 12:48 32.667968 -114.601468 270 225ft 0kts
04-Oct-15 12:49 32.667968 -114.601468 270 225ft 0kts
04-Oct-15 12:50 32.667968 -114.601468 270 225ft 0kts
04-Oct-15 12:51 32.667968 -114.601469 270 225ft 0kts
04-Oct-15 12:52 32.667968 -114.601470 270 225ft 0kts
04-Oct-15 12:53 32.667968 -114.601470 270 225ft 0kts
04-Oct-15 12:54 32.667968 -114.601471 270 225ft 0kts
04-Oct-15 12:55 32.667968 -114.601472 270 225ft 0kts
04-Oct-15 12:56 32.667968 -114.601473 270 225ft 0kts
04-Oct-15 12:57 32.667968 -114.601474 270 225ft 0kts
04-Oct-15 12:58 32.667968 -114.601474 270 225ft 0kts
04-Oct-15 12:59 32.667968 -114.601475 270 225ft 0kts
04-Oct-15 13:00 32.667968 -114.601475 270 225ft 0kts
04-Oct-15 13:01 32.667968 -114.601476 270 225ft 0kts
04-Oct-15 13:02 32.667968 -114.601477 270 225ft 0kts
04-Oct-15 13:03 32.667238 -114.602023 214 225ft 10kts
04-Oct-15 13:04 32.666792 -114.603162 268 225ft 0kts
04-Oct-15 13:05 32.666792 -114.603163 268 225ft 0kts
04-Oct-15 13:06 32.666792 -114.603222 269 225ft 2kts
04-Oct-15 13:07 32.663776 -114.603981 178 225ft 63kts
04-Oct-15 13:08 32.643465 -114.604027 160 1283ft 72kts
04-Oct-15 13:09 32.655900 -114.587009 341 2318ft 128kts
04-Oct-15 13:10 32.690233 -114.586934 0 3283ft 122kts
04-Oct-15 13:11 32.724729 -114.593787 351 4138ft 122kts
04-Oct-15 13:12 32.758953 -114.600921 351 5061ft 136kts
04-Oct-15 13:13 32.786744 -114.625811 254 5969ft 131kts
04-Oct-15 13:14 32.779322 -114.665052 240 6978ft 115kts
04-Oct-15 13:15 32.770811 -114.702473 247 8173ft 119kts
04-Oct-15 13:16 32.766908 -114.740830 251 9324ft 115kts
04-Oct-15 13:17 32.765550 -114.778573 254 10479ft 112kts
04-Oct-15 13:18 32.764911 -114.814444 253 11593ft 101kts
04-Oct-15 13:19 32.764104 -114.848148 256 12019ft 119kts
04-Oct-15 13:20 32.763711 -114.892310 259 12019ft 145kts
04-Oct-15 13:21 32.763145 -114.943741 260 11975ft 153kts
04-Oct-15 13:22 32.762089 -114.992541 258 11983ft 144kts
04-Oct-15 13:23 32.761159 -115.032137 258 11982ft 143kts
04-Oct-15 13:24 32.760030 -115.079623 258 11982ft 143kts
04-Oct-15 13:25 32.758875 -115.127454 258 11984ft 144kts
04-Oct-15 13:26 32.757816 -115.177469 259 11975ft 152kts
04-Oct-15 13:27 32.756813 -115.229734 260 11965ft 157kts
04-Oct-15 13:28 32.755794 -115.279158 258 12000ft 144kts
04-Oct-15 13:29 32.754581 -115.329006 259 11988ft 151kts
04-Oct-15 13:30 32.753287 -115.377536 258 11996ft 144kts
04-Oct-15 13:31 32.751946 -115.425026 258 12002ft 143kts
04-Oct-15 13:32 32.750581 -115.472364 257 12001ft 143kts
04-Oct-15 13:33 32.750091 -115.520116 262 11997ft 146kts
04-Oct-15 13:34 32.751540 -115.568182 261 11998ft 145kts
04-Oct-15 13:35 32.752717 -115.616176 261 12006ft 145kts
04-Oct-15 13:36 32.754018 -115.664284 261 12008ft 145kts
04-Oct-15 13:37 32.755428 -115.712401 261 12011ft 145kts
04-Oct-15 13:38 32.756570 -115.760460 260 12010ft 145kts
04-Oct-15 13:39 32.757656 -115.808558 261 12030ft 146kts
04-Oct-15 13:40 32.759002 -115.860519 262 12000ft 157kts
04-Oct-15 13:41 32.760004 -115.910330 260 12036ft 147kts
04-Oct-15 13:42 32.761129 -115.962487 261 12032ft 158kts
04-Oct-15 13:43 32.762131 -116.015958 263 12023ft 156kts
04-Oct-15 13:44 32.770691 -116.063823 300 12065ft 160kts
04-Oct-15 13:45 32.801839 -116.106485 303 12036ft 168kts
04-Oct-15 13:46 32.831468 -116.147490 301 12052ft 160kts
04-Oct-15 13:47 32.860011 -116.187566 301 12062ft 157kts
04-Oct-15 13:48 32.888400 -116.227689 301 12067ft 159kts
04-Oct-15 13:49 32.917214 -116.268195 301 12070ft 160kts
04-Oct-15 13:50 32.946137 -116.308952 301 12096ft 163kts
04-Oct-15 13:51 32.977200 -116.352441 302 12079ft 171kts
04-Oct-15 13:52 33.007592 -116.395325 301 12069ft 167kts
04-Oct-15 13:53 33.037465 -116.437861 301 12074ft 163kts
04-Oct-15 13:54 33.066511 -116.478519 301 12061ft 163kts
04-Oct-15 13:55 33.096963 -116.521664 301 11988ft 165kts
04-Oct-15 13:56 33.126182 -116.563791 300 11990ft 164kts
04-Oct-15 13:57 33.162821 -116.598657 323 11980ft 174kts
04-Oct-15 13:58 33.205013 -116.627419 323 11981ft 174kts
04-Oct-15 13:59 33.247101 -116.656233 323 11989ft 174kts
04-Oct-15 14:00 33.289295 -116.685165 323 11986ft 174kts
04-Oct-15 14:01 33.331463 -116.714112 323 11984ft 175kts
04-Oct-15 14:02 33.373887 -116.743275 323 11979ft 175kts
04-Oct-15 14:03 33.416628 -116.772067 323 11975ft 175kts
04-Oct-15 14:04 33.461035 -116.802490 325 11317ft 193kts
04-Oct-15 14:05 33.508973 -116.835371 325 10299ft 189kts
04-Oct-15 14:06 33.553838 -116.867476 323 9310ft 184kts
04-Oct-15 14:07 33.596020 -116.901667 322 8326ft 182kts
04-Oct-15 14:08 33.636264 -116.934608 322 7372ft 179kts
04-Oct-15 14:09 33.678443 -116.969229 322 6350ft 175kts
04-Oct-15 14:10 33.710484 -116.995501 322 5972ft 153kts
04-Oct-15 14:11 33.743764 -117.022026 322 5979ft 140kts
04-Oct-15 14:12 33.776711 -117.047436 322 5996ft 140kts
04-Oct-15 14:13 33.809924 -117.073175 322 6005ft 142kts
04-Oct-15 14:14 33.843106 -117.099080 322 6000ft 142kts
04-Oct-15 14:15 33.877197 -117.125976 322 6002ft 152kts
04-Oct-15 14:16 33.911910 -117.154077 322 5999ft 156kts
04-Oct-15 14:17 33.949150 -117.184536 322 5999ft 157kts
04-Oct-15 14:18 33.984744 -117.213817 322 5998ft 158kts
04-Oct-15 14:19 34.022559 -117.245897 321 5997ft 166kts
04-Oct-15 14:20 34.048253 -117.291174 283 5519ft 180kts
04-Oct-15 14:21 34.056634 -117.347170 269 5018ft 147kts
04-Oct-15 14:22 34.055526 -117.396966 264 4024ft 155kts
04-Oct-15 14:23 34.054620 -117.450987 268 3100ft 165kts
04-Oct-15 14:24 34.054959 -117.500998 268 2234ft 121kts
04-Oct-15 14:25 34.054971 -117.534007 268 1721ft 89kts
04-Oct-15 14:26 34.055061 -117.565265 267 1326ft 89kts
04-Oct-15 14:27 34.054972 -117.588701 268 953ft 23kts
04-Oct-15 14:28 34.053654 -117.590201 255 953ft 14kts
04-Oct-15 14:29 34.053687 -117.598473 270 953ft 21kts
04-Oct-15 14:30 34.053703 -117.605966 268 953ft 27kts
04-Oct-15 14:31 34.052920 -117.612978 194 953ft 6kts
04-Oct-15 14:32 34.052344 -117.613785 182 953ft 0kts
04-Oct-15 14:33 34.052344 -117.613785 182 953ft 0kts
04-Oct-15 14:34 34.052344 -117.613785 182 953ft 0kts

Navigation Log

Ident Type
Flight plan parsing failed, navigation log unavailable